sensor_id;sensor_type;location;lat;lon;timestamp;P1;durP1;ratioP1;P2;durP2;ratioP2
68178;SDS011;54998;42.656;23.382;2022-08-19T00:01:52;9.75;;;6.97;;
68178;SDS011;54998;42.656;23.382;2022-08-19T00:04:25;9.40;;;6.88;;
68178;SDS011;54998;42.656;23.382;2022-08-19T00:06:56;7.20;;;6.40;;
68178;SDS011;54998;42.656;23.382;2022-08-19T00:09:23;7.57;;;6.68;;
68178;SDS011;54998;42.656;23.382;2022-08-19T00:11:49;7.85;;;7.05;;
68178;SDS011;54998;42.656;23.382;2022-08-19T00:16:43;7.93;;;6.75;;
68178;SDS011;54998;42.656;23.382;2022-08-19T00:19:11;8.02;;;6.55;;
68178;SDS011;54998;42.656;23.382;2022-08-19T00:24:04;10.38;;;7.40;;
68178;SDS011;54998;42.656;23.382;2022-08-19T00:26:31;8.32;;;6.22;;
68178;SDS011;54998;42.656;23.382;2022-08-19T00:28:57;7.88;;;7.05;;
68178;SDS011;54998;42.656;23.382;2022-08-19T00:31:22;9.35;;;7.30;;
68178;SDS011;54998;42.656;23.382;2022-08-19T00:33:47;9.98;;;7.43;;
68178;SDS011;54998;42.656;23.382;2022-08-19T00:36:17;9.48;;;6.85;;
68178;SDS011;54998;42.656;23.382;2022-08-19T00:38:42;7.90;;;6.95;;
68178;SDS011;54998;42.656;23.382;2022-08-19T00:41:09;8.95;;;7.60;;
68178;SDS011;54998;42.656;23.382;2022-08-19T00:43:39;7.72;;;6.90;;
68178;SDS011;54998;42.656;23.382;2022-08-19T00:46:06;9.18;;;6.78;;
68178;SDS011;54998;42.656;23.382;2022-08-19T00:48:32;7.60;;;6.80;;
68178;SDS011;54998;42.656;23.382;2022-08-19T00:50:58;9.13;;;7.32;;
68178;SDS011;54998;42.656;23.382;2022-08-19T00:53:26;8.90;;;7.47;;
68178;SDS011;54998;42.656;23.382;2022-08-19T00:55:54;11.15;;;7.10;;
68178;SDS011;54998;42.656;23.382;2022-08-19T00:58:24;7.82;;;6.25;;
68178;SDS011;54998;42.656;23.382;2022-08-19T01:00:53;8.38;;;7.40;;
68178;SDS011;54998;42.656;23.382;2022-08-19T01:03:20;9.15;;;7.45;;
68178;SDS011;54998;42.656;23.382;2022-08-19T01:05:46;8.25;;;6.20;;
68178;SDS011;54998;42.656;23.382;2022-08-19T01:08:14;8.00;;;7.20;;
68178;SDS011;54998;42.656;23.382;2022-08-19T01:10:42;9.48;;;7.20;;
68178;SDS011;54998;42.656;23.382;2022-08-19T01:13:13;8.68;;;7.72;;
68178;SDS011;54998;42.656;23.382;2022-08-19T01:15:45;9.50;;;7.40;;
68178;SDS011;54998;42.656;23.382;2022-08-19T01:20:41;9.07;;;7.25;;
68178;SDS011;54998;42.656;23.382;2022-08-19T01:23:09;8.27;;;7.00;;
68178;SDS011;54998;42.656;23.382;2022-08-19T01:28:04;9.35;;;7.50;;
68178;SDS011;54998;42.656;23.382;2022-08-19T01:30:32;8.15;;;7.22;;
68178;SDS011;54998;42.656;23.382;2022-08-19T01:32:59;8.25;;;7.40;;
68178;SDS011;54998;42.656;23.382;2022-08-19T01:35:26;9.85;;;6.45;;
68178;SDS011;54998;42.656;23.382;2022-08-19T01:37:58;8.40;;;6.30;;
68178;SDS011;54998;42.656;23.382;2022-08-19T01:40:27;8.75;;;7.57;;
68178;SDS011;54998;42.656;23.382;2022-08-19T01:42:56;9.85;;;8.02;;
68178;SDS011;54998;42.656;23.382;2022-08-19T01:45:24;9.38;;;7.45;;
68178;SDS011;54998;42.656;23.382;2022-08-19T01:47:52;10.10;;;7.55;;
68178;SDS011;54998;42.656;23.382;2022-08-19T01:50:18;9.30;;;7.10;;
68178;SDS011;54998;42.656;23.382;2022-08-19T01:52:44;8.48;;;6.70;;
68178;SDS011;54998;42.656;23.382;2022-08-19T01:55:11;9.10;;;6.60;;
68178;SDS011;54998;42.656;23.382;2022-08-19T01:57:41;9.45;;;7.68;;
68178;SDS011;54998;42.656;23.382;2022-08-19T02:00:10;9.68;;;6.63;;
68178;SDS011;54998;42.656;23.382;2022-08-19T02:02:40;8.88;;;6.40;;
68178;SDS011;54998;42.656;23.382;2022-08-19T02:05:05;10.00;;;7.30;;
68178;SDS011;54998;42.656;23.382;2022-08-19T02:07:33;9.38;;;7.38;;
68178;SDS011;54998;42.656;23.382;2022-08-19T02:10:00;8.52;;;7.40;;
68178;SDS011;54998;42.656;23.382;2022-08-19T02:12:28;10.25;;;8.20;;
68178;SDS011;54998;42.656;23.382;2022-08-19T02:14:54;10.15;;;7.30;;
68178;SDS011;54998;42.656;23.382;2022-08-19T02:17:19;9.20;;;7.18;;
68178;SDS011;54998;42.656;23.382;2022-08-19T02:19:45;10.85;;;7.60;;
68178;SDS011;54998;42.656;23.382;2022-08-19T02:22:10;8.35;;;7.47;;
68178;SDS011;54998;42.656;23.382;2022-08-19T02:24:36;8.02;;;7.05;;
68178;SDS011;54998;42.656;23.382;2022-08-19T02:27:01;8.40;;;6.95;;
68178;SDS011;54998;42.656;23.382;2022-08-19T02:29:27;9.43;;;8.25;;
68178;SDS011;54998;42.656;23.382;2022-08-19T02:31:52;11.25;;;7.80;;
68178;SDS011;54998;42.656;23.382;2022-08-19T02:34:18;11.27;;;8.10;;
68178;SDS011;54998;42.656;23.382;2022-08-19T02:36:44;11.73;;;8.00;;
68178;SDS011;54998;42.656;23.382;2022-08-19T02:39:09;10.05;;;8.23;;
68178;SDS011;54998;42.656;23.382;2022-08-19T02:41:35;8.30;;;7.10;;
68178;SDS011;54998;42.656;23.382;2022-08-19T02:44:01;9.38;;;7.65;;
68178;SDS011;54998;42.656;23.382;2022-08-19T02:46:30;13.50;;;8.35;;
68178;SDS011;54998;42.656;23.382;2022-08-19T02:48:59;10.10;;;8.02;;
68178;SDS011;54998;42.656;23.382;2022-08-19T02:51:28;9.15;;;7.85;;
68178;SDS011;54998;42.656;23.382;2022-08-19T02:53:56;9.93;;;8.75;;
68178;SDS011;54998;42.656;23.382;2022-08-19T02:56:22;12.75;;;8.25;;
68178;SDS011;54998;42.656;23.382;2022-08-19T02:58:49;9.80;;;8.60;;
68178;SDS011;54998;42.656;23.382;2022-08-19T03:01:23;11.23;;;8.80;;
68178;SDS011;54998;42.656;23.382;2022-08-19T03:03:52;9.80;;;8.43;;
68178;SDS011;54998;42.656;23.382;2022-08-19T03:06:18;8.85;;;7.13;;
68178;SDS011;54998;42.656;23.382;2022-08-19T03:08:45;10.55;;;6.60;;
68178;SDS011;54998;42.656;23.382;2022-08-19T03:11:15;11.15;;;7.30;;
68178;SDS011;54998;42.656;23.382;2022-08-19T03:13:45;10.85;;;8.10;;
68178;SDS011;54998;42.656;23.382;2022-08-19T03:16:14;9.07;;;7.07;;
68178;SDS011;54998;42.656;23.382;2022-08-19T03:18:40;9.23;;;8.20;;
68178;SDS011;54998;42.656;23.382;2022-08-19T03:21:06;10.02;;;7.47;;
68178;SDS011;54998;42.656;23.382;2022-08-19T03:23:32;8.90;;;7.80;;
68178;SDS011;54998;42.656;23.382;2022-08-19T03:28:24;10.63;;;7.97;;
68178;SDS011;54998;42.656;23.382;2022-08-19T03:33:47;8.80;;;7.68;;
68178;SDS011;54998;42.656;23.382;2022-08-19T03:36:24;10.77;;;8.23;;
68178;SDS011;54998;42.656;23.382;2022-08-19T03:38:53;10.48;;;7.97;;
68178;SDS011;54998;42.656;23.382;2022-08-19T03:41:24;8.85;;;7.70;;
68178;SDS011;54998;42.656;23.382;2022-08-19T03:43:57;10.63;;;8.80;;
68178;SDS011;54998;42.656;23.382;2022-08-19T03:46:24;10.90;;;7.90;;
68178;SDS011;54998;42.656;23.382;2022-08-19T03:48:53;10.38;;;8.38;;
68178;SDS011;54998;42.656;23.382;2022-08-19T03:51:23;11.15;;;8.20;;
68178;SDS011;54998;42.656;23.382;2022-08-19T03:53:50;13.90;;;8.25;;
68178;SDS011;54998;42.656;23.382;2022-08-19T03:56:16;8.77;;;7.40;;
68178;SDS011;54998;42.656;23.382;2022-08-19T03:58:42;10.57;;;7.78;;
68178;SDS011;54998;42.656;23.382;2022-08-19T04:01:10;9.27;;;8.07;;
68178;SDS011;54998;42.656;23.382;2022-08-19T04:03:38;10.95;;;8.18;;
68178;SDS011;54998;42.656;23.382;2022-08-19T04:06:18;8.65;;;7.65;;
68178;SDS011;54998;42.656;23.382;2022-08-19T04:08:47;9.70;;;8.70;;
68178;SDS011;54998;42.656;23.382;2022-08-19T04:11:15;10.43;;;8.07;;
68178;SDS011;54998;42.656;23.382;2022-08-19T04:13:43;11.10;;;8.63;;
68178;SDS011;54998;42.656;23.382;2022-08-19T04:16:09;8.52;;;7.50;;
68178;SDS011;54998;42.656;23.382;2022-08-19T04:18:36;11.13;;;7.60;;
68178;SDS011;54998;42.656;23.382;2022-08-19T04:21:03;9.27;;;7.72;;
68178;SDS011;54998;42.656;23.382;2022-08-19T04:23:29;8.90;;;7.15;;
68178;SDS011;54998;42.656;23.382;2022-08-19T04:25:55;10.82;;;6.80;;
68178;SDS011;54998;42.656;23.382;2022-08-19T04:28:21;12.80;;;7.50;;
68178;SDS011;54998;42.656;23.382;2022-08-19T04:33:15;11.90;;;7.82;;
68178;SDS011;54998;42.656;23.382;2022-08-19T04:35:43;19.30;;;10.60;;
68178;SDS011;54998;42.656;23.382;2022-08-19T04:38:10;10.82;;;7.75;;
68178;SDS011;54998;42.656;23.382;2022-08-19T04:40:40;12.80;;;7.70;;
68178;SDS011;54998;42.656;23.382;2022-08-19T04:43:26;9.52;;;7.50;;
68178;SDS011;54998;42.656;23.382;2022-08-19T04:45:51;9.45;;;7.22;;
68178;SDS011;54998;42.656;23.382;2022-08-19T04:48:17;9.85;;;7.88;;
68178;SDS011;54998;42.656;23.382;2022-08-19T04:50:51;9.35;;;7.55;;
68178;SDS011;54998;42.656;23.382;2022-08-19T04:53:22;8.65;;;7.72;;
68178;SDS011;54998;42.656;23.382;2022-08-19T04:55:56;10.50;;;7.95;;
68178;SDS011;54998;42.656;23.382;2022-08-19T04:58:23;11.63;;;8.15;;
68178;SDS011;54998;42.656;23.382;2022-08-19T05:00:50;9.43;;;7.45;;
68178;SDS011;54998;42.656;23.382;2022-08-19T05:03:16;9.15;;;7.70;;
68178;SDS011;54998;42.656;23.382;2022-08-19T05:05:42;9.23;;;8.13;;
68178;SDS011;54998;42.656;23.382;2022-08-19T05:08:10;10.68;;;8.18;;
68178;SDS011;54998;42.656;23.382;2022-08-19T05:10:44;15.20;;;7.88;;
68178;SDS011;54998;42.656;23.382;2022-08-19T05:13:11;11.88;;;8.32;;
68178;SDS011;54998;42.656;23.382;2022-08-19T05:15:36;10.10;;;7.15;;
68178;SDS011;54998;42.656;23.382;2022-08-19T05:18:01;9.23;;;7.72;;
68178;SDS011;54998;42.656;23.382;2022-08-19T05:20:45;10.05;;;8.23;;
68178;SDS011;54998;42.656;23.382;2022-08-19T05:23:29;11.60;;;8.60;;
68178;SDS011;54998;42.656;23.382;2022-08-19T05:25:55;13.60;;;8.68;;
68178;SDS011;54998;42.656;23.382;2022-08-19T05:28:21;11.38;;;7.82;;
68178;SDS011;54998;42.656;23.382;2022-08-19T05:30:46;11.18;;;7.28;;
68178;SDS011;54998;42.656;23.382;2022-08-19T05:33:13;12.30;;;8.48;;
68178;SDS011;54998;42.656;23.382;2022-08-19T05:35:39;12.77;;;9.00;;
68178;SDS011;54998;42.656;23.382;2022-08-19T05:38:06;12.05;;;7.45;;
68178;SDS011;54998;42.656;23.382;2022-08-19T05:40:37;10.13;;;8.52;;
68178;SDS011;54998;42.656;23.382;2022-08-19T05:43:05;8.85;;;7.60;;
68178;SDS011;54998;42.656;23.382;2022-08-19T05:45:31;9.63;;;8.43;;
68178;SDS011;54998;42.656;23.382;2022-08-19T05:47:57;11.85;;;7.40;;
68178;SDS011;54998;42.656;23.382;2022-08-19T05:52:50;12.90;;;8.48;;
68178;SDS011;54998;42.656;23.382;2022-08-19T05:55:16;9.77;;;8.50;;
68178;SDS011;54998;42.656;23.382;2022-08-19T05:57:41;10.82;;;8.93;;
68178;SDS011;54998;42.656;23.382;2022-08-19T06:00:07;10.10;;;8.88;;
68178;SDS011;54998;42.656;23.382;2022-08-19T06:02:35;9.25;;;8.45;;
68178;SDS011;54998;42.656;23.382;2022-08-19T06:05:02;10.55;;;9.55;;
68178;SDS011;54998;42.656;23.382;2022-08-19T06:07:28;10.57;;;9.48;;
68178;SDS011;54998;42.656;23.382;2022-08-19T06:09:54;11.75;;;9.05;;
68178;SDS011;54998;42.656;23.382;2022-08-19T06:12:20;12.30;;;9.27;;
68178;SDS011;54998;42.656;23.382;2022-08-19T06:14:55;10.55;;;9.52;;
68178;SDS011;54998;42.656;23.382;2022-08-19T06:17:21;11.63;;;9.50;;
68178;SDS011;54998;42.656;23.382;2022-08-19T06:19:49;11.05;;;8.98;;
68178;SDS011;54998;42.656;23.382;2022-08-19T06:22:17;10.63;;;9.32;;
68178;SDS011;54998;42.656;23.382;2022-08-19T06:24:42;9.00;;;8.15;;
68178;SDS011;54998;42.656;23.382;2022-08-19T06:27:08;11.18;;;8.82;;
68178;SDS011;54998;42.656;23.382;2022-08-19T06:29:33;11.20;;;8.50;;
68178;SDS011;54998;42.656;23.382;2022-08-19T06:32:00;9.50;;;8.45;;
68178;SDS011;54998;42.656;23.382;2022-08-19T06:34:28;11.25;;;9.70;;
68178;SDS011;54998;42.656;23.382;2022-08-19T06:36:57;12.75;;;10.25;;
68178;SDS011;54998;42.656;23.382;2022-08-19T06:39:27;21.90;;;10.25;;
68178;SDS011;54998;42.656;23.382;2022-08-19T06:41:56;10.88;;;9.10;;
68178;SDS011;54998;42.656;23.382;2022-08-19T06:44:24;15.60;;;10.05;;
68178;SDS011;54998;42.656;23.382;2022-08-19T06:46:52;15.10;;;9.98;;
68178;SDS011;54998;42.656;23.382;2022-08-19T06:49:19;12.02;;;9.10;;
68178;SDS011;54998;42.656;23.382;2022-08-19T06:51:45;14.38;;;9.63;;
68178;SDS011;54998;42.656;23.382;2022-08-19T06:54:13;11.68;;;10.00;;
68178;SDS011;54998;42.656;23.382;2022-08-19T06:56:39;15.65;;;10.45;;
68178;SDS011;54998;42.656;23.382;2022-08-19T06:59:06;18.60;;;7.70;;
68178;SDS011;54998;42.656;23.382;2022-08-19T07:01:35;14.98;;;9.95;;
68178;SDS011;54998;42.656;23.382;2022-08-19T07:04:06;16.08;;;9.38;;
68178;SDS011;54998;42.656;23.382;2022-08-19T07:06:33;10.82;;;9.23;;
68178;SDS011;54998;42.656;23.382;2022-08-19T07:08:59;12.60;;;8.88;;
68178;SDS011;54998;42.656;23.382;2022-08-19T07:11:25;12.35;;;8.68;;
68178;SDS011;54998;42.656;23.382;2022-08-19T07:13:51;13.18;;;9.40;;
68178;SDS011;54998;42.656;23.382;2022-08-19T07:16:17;12.90;;;10.27;;
68178;SDS011;54998;42.656;23.382;2022-08-19T07:18:45;12.50;;;9.23;;
68178;SDS011;54998;42.656;23.382;2022-08-19T07:21:16;14.15;;;9.00;;
68178;SDS011;54998;42.656;23.382;2022-08-19T07:23:44;13.38;;;8.68;;
68178;SDS011;54998;42.656;23.382;2022-08-19T07:28:35;13.15;;;9.45;;
68178;SDS011;54998;42.656;23.382;2022-08-19T07:31:04;13.48;;;9.60;;
68178;SDS011;54998;42.656;23.382;2022-08-19T07:33:32;17.38;;;8.93;;
68178;SDS011;54998;42.656;23.382;2022-08-19T07:36:02;11.77;;;8.88;;
68178;SDS011;54998;42.656;23.382;2022-08-19T07:38:29;10.07;;;8.75;;
68178;SDS011;54998;42.656;23.382;2022-08-19T07:40:55;10.18;;;9.18;;
68178;SDS011;54998;42.656;23.382;2022-08-19T07:43:20;10.57;;;9.48;;
68178;SDS011;54998;42.656;23.382;2022-08-19T07:45:50;10.23;;;9.07;;
68178;SDS011;54998;42.656;23.382;2022-08-19T07:48:18;10.18;;;9.20;;
68178;SDS011;54998;42.656;23.382;2022-08-19T07:50:44;13.98;;;10.57;;
68178;SDS011;54998;42.656;23.382;2022-08-19T07:53:09;12.13;;;9.90;;
68178;SDS011;54998;42.656;23.382;2022-08-19T07:55:36;10.85;;;9.00;;
68178;SDS011;54998;42.656;23.382;2022-08-19T07:58:02;14.35;;;10.15;;
68178;SDS011;54998;42.656;23.382;2022-08-19T08:00:29;10.65;;;8.82;;
68178;SDS011;54998;42.656;23.382;2022-08-19T08:02:55;10.48;;;9.38;;
68178;SDS011;54998;42.656;23.382;2022-08-19T08:05:21;10.75;;;9.73;;
68178;SDS011;54998;42.656;23.382;2022-08-19T08:08:05;12.77;;;9.73;;
68178;SDS011;54998;42.656;23.382;2022-08-19T08:10:49;10.98;;;9.07;;
68178;SDS011;54998;42.656;23.382;2022-08-19T08:13:15;10.88;;;9.70;;
68178;SDS011;54998;42.656;23.382;2022-08-19T08:15:41;13.00;;;10.40;;
68178;SDS011;54998;42.656;23.382;2022-08-19T08:18:10;12.10;;;10.95;;
68178;SDS011;54998;42.656;23.382;2022-08-19T08:20:36;12.73;;;10.80;;
68178;SDS011;54998;42.656;23.382;2022-08-19T08:23:02;12.68;;;9.55;;
68178;SDS011;54998;42.656;23.382;2022-08-19T08:25:46;10.40;;;9.40;;
68178;SDS011;54998;42.656;23.382;2022-08-19T08:28:14;13.15;;;9.27;;
68178;SDS011;54998;42.656;23.382;2022-08-19T08:30:40;10.93;;;9.80;;
68178;SDS011;54998;42.656;23.382;2022-08-19T08:33:07;10.95;;;9.85;;
68178;SDS011;54998;42.656;23.382;2022-08-19T08:35:33;12.52;;;10.43;;
68178;SDS011;54998;42.656;23.382;2022-08-19T08:37:58;14.75;;;10.38;;
68178;SDS011;54998;42.656;23.382;2022-08-19T08:43:29;12.57;;;11.25;;
68178;SDS011;54998;42.656;23.382;2022-08-19T08:46:00;10.35;;;9.35;;
68178;SDS011;54998;42.656;23.382;2022-08-19T08:51:48;10.60;;;9.70;;
68178;SDS011;54998;42.656;23.382;2022-08-19T08:54:26;11.38;;;10.27;;
68178;SDS011;54998;42.656;23.382;2022-08-19T08:57:06;11.15;;;10.20;;
68178;SDS011;54998;42.656;23.382;2022-08-19T08:59:39;10.82;;;9.55;;
68178;SDS011;54998;42.656;23.382;2022-08-19T09:02:06;10.15;;;9.15;;
68178;SDS011;54998;42.656;23.382;2022-08-19T09:04:34;10.43;;;8.85;;
68178;SDS011;54998;42.656;23.382;2022-08-19T09:09:56;9.38;;;8.55;;
68178;SDS011;54998;42.656;23.382;2022-08-19T09:15:07;9.43;;;8.57;;
68178;SDS011;54998;42.656;23.382;2022-08-19T09:17:38;6.82;;;6.22;;
68178;SDS011;54998;42.656;23.382;2022-08-19T09:22:35;9.32;;;8.43;;
68178;SDS011;54998;42.656;23.382;2022-08-19T09:25:02;7.60;;;6.65;;
68178;SDS011;54998;42.656;23.382;2022-08-19T09:27:28;10.68;;;9.73;;
68178;SDS011;54998;42.656;23.382;2022-08-19T09:29:54;8.77;;;7.93;;
68178;SDS011;54998;42.656;23.382;2022-08-19T09:32:21;7.85;;;7.13;;
68178;SDS011;54998;42.656;23.382;2022-08-19T09:34:47;9.23;;;8.52;;
68178;SDS011;54998;42.656;23.382;2022-08-19T09:37:13;8.73;;;8.00;;
68178;SDS011;54998;42.656;23.382;2022-08-19T09:39:39;12.63;;;11.68;;
68178;SDS011;54998;42.656;23.382;2022-08-19T09:42:06;7.45;;;6.68;;
68178;SDS011;54998;42.656;23.382;2022-08-19T09:44:37;8.52;;;7.82;;
68178;SDS011;54998;42.656;23.382;2022-08-19T09:47:03;8.07;;;7.13;;
68178;SDS011;54998;42.656;23.382;2022-08-19T09:49:29;7.75;;;7.05;;
68178;SDS011;54998;42.656;23.382;2022-08-19T09:51:56;7.63;;;6.88;;
68178;SDS011;54998;42.656;23.382;2022-08-19T09:54:22;8.43;;;7.55;;
68178;SDS011;54998;42.656;23.382;2022-08-19T09:56:48;7.60;;;7.00;;
68178;SDS011;54998;42.656;23.382;2022-08-19T09:59:14;8.80;;;8.00;;
68178;SDS011;54998;42.656;23.382;2022-08-19T10:01:39;7.63;;;5.80;;
68178;SDS011;54998;42.656;23.382;2022-08-19T10:04:05;7.80;;;7.25;;
68178;SDS011;54998;42.656;23.382;2022-08-19T10:06:34;7.55;;;7.05;;
68178;SDS011;54998;42.656;23.382;2022-08-19T10:09:03;11.23;;;9.25;;
68178;SDS011;54998;42.656;23.382;2022-08-19T10:11:31;8.95;;;8.20;;
68178;SDS011;54998;42.656;23.382;2022-08-19T10:13:57;9.95;;;8.68;;
68178;SDS011;54998;42.656;23.382;2022-08-19T10:16:24;7.80;;;7.10;;
68178;SDS011;54998;42.656;23.382;2022-08-19T10:18:50;8.43;;;7.63;;
68178;SDS011;54998;42.656;23.382;2022-08-19T10:23:50;8.98;;;8.27;;
68178;SDS011;54998;42.656;23.382;2022-08-19T10:26:21;9.73;;;8.32;;
68178;SDS011;54998;42.656;23.382;2022-08-19T10:28:49;9.25;;;8.35;;
68178;SDS011;54998;42.656;23.382;2022-08-19T10:31:17;9.52;;;8.77;;
68178;SDS011;54998;42.656;23.382;2022-08-19T10:33:45;9.00;;;8.30;;
68178;SDS011;54998;42.656;23.382;2022-08-19T10:36:20;8.02;;;7.22;;
68178;SDS011;54998;42.656;23.382;2022-08-19T10:38:49;8.48;;;7.65;;
68178;SDS011;54998;42.656;23.382;2022-08-19T10:41:17;7.53;;;6.82;;
68178;SDS011;54998;42.656;23.382;2022-08-19T10:43:45;7.88;;;7.18;;
68178;SDS011;54998;42.656;23.382;2022-08-19T10:46:12;9.00;;;7.30;;
68178;SDS011;54998;42.656;23.382;2022-08-19T10:48:39;7.63;;;7.03;;
68178;SDS011;54998;42.656;23.382;2022-08-19T10:51:05;8.38;;;7.57;;
68178;SDS011;54998;42.656;23.382;2022-08-19T10:53:50;8.48;;;7.68;;
68178;SDS011;54998;42.656;23.382;2022-08-19T10:56:16;8.93;;;7.85;;
68178;SDS011;54998;42.656;23.382;2022-08-19T10:59:01;8.00;;;7.38;;
68178;SDS011;54998;42.656;23.382;2022-08-19T11:01:28;7.65;;;6.10;;
68178;SDS011;54998;42.656;23.382;2022-08-19T11:03:55;8.73;;;7.88;;
68178;SDS011;54998;42.656;23.382;2022-08-19T11:06:22;7.88;;;6.82;;
68178;SDS011;54998;42.656;23.382;2022-08-19T11:08:50;8.25;;;7.53;;
68178;SDS011;54998;42.656;23.382;2022-08-19T11:11:16;9.25;;;8.35;;
68178;SDS011;54998;42.656;23.382;2022-08-19T11:13:43;8.70;;;8.00;;
68178;SDS011;54998;42.656;23.382;2022-08-19T11:16:14;10.55;;;7.78;;
68178;SDS011;54998;42.656;23.382;2022-08-19T11:18:43;8.27;;;7.47;;
68178;SDS011;54998;42.656;23.382;2022-08-19T11:21:27;8.35;;;7.65;;
68178;SDS011;54998;42.656;23.382;2022-08-19T11:23:58;8.52;;;7.72;;
68178;SDS011;54998;42.656;23.382;2022-08-19T11:26:31;9.32;;;8.10;;
68178;SDS011;54998;42.656;23.382;2022-08-19T11:28:58;8.10;;;7.30;;
68178;SDS011;54998;42.656;23.382;2022-08-19T11:31:26;8.73;;;7.82;;
68178;SDS011;54998;42.656;23.382;2022-08-19T11:36:26;8.68;;;7.88;;
68178;SDS011;54998;42.656;23.382;2022-08-19T11:38:53;8.23;;;7.53;;
68178;SDS011;54998;42.656;23.382;2022-08-19T11:43:57;9.60;;;7.65;;
68178;SDS011;54998;42.656;23.382;2022-08-19T11:46:23;8.65;;;7.57;;
68178;SDS011;54998;42.656;23.382;2022-08-19T11:48:50;12.38;;;8.18;;
68178;SDS011;54998;42.656;23.382;2022-08-19T11:51:20;9.45;;;8.55;;
68178;SDS011;54998;42.656;23.382;2022-08-19T11:53:47;7.85;;;7.13;;
68178;SDS011;54998;42.656;23.382;2022-08-19T11:56:14;9.48;;;7.57;;
68178;SDS011;54998;42.656;23.382;2022-08-19T11:58:40;8.98;;;5.68;;
68178;SDS011;54998;42.656;23.382;2022-08-19T12:01:09;8.38;;;7.65;;
68178;SDS011;54998;42.656;23.382;2022-08-19T12:03:36;8.68;;;8.00;;
68178;SDS011;54998;42.656;23.382;2022-08-19T12:06:05;8.50;;;7.47;;
68178;SDS011;54998;42.656;23.382;2022-08-19T12:08:32;8.57;;;7.88;;
68178;SDS011;54998;42.656;23.382;2022-08-19T12:10:58;8.13;;;7.45;;
68178;SDS011;54998;42.656;23.382;2022-08-19T12:13:26;8.77;;;7.50;;
68178;SDS011;54998;42.656;23.382;2022-08-19T12:15:53;9.10;;;7.10;;
68178;SDS011;54998;42.656;23.382;2022-08-19T12:18:19;7.97;;;7.18;;
68178;SDS011;54998;42.656;23.382;2022-08-19T12:20:44;9.43;;;7.10;;
68178;SDS011;54998;42.656;23.382;2022-08-19T12:23:11;8.70;;;7.82;;
68178;SDS011;54998;42.656;23.382;2022-08-19T12:25:37;8.32;;;7.10;;
68178;SDS011;54998;42.656;23.382;2022-08-19T12:28:08;8.20;;;7.50;;
68178;SDS011;54998;42.656;23.382;2022-08-19T12:30:34;9.98;;;8.57;;
68178;SDS011;54998;42.656;23.382;2022-08-19T12:33:03;8.80;;;8.10;;
68178;SDS011;54998;42.656;23.382;2022-08-19T12:35:28;8.10;;;6.95;;
68178;SDS011;54998;42.656;23.382;2022-08-19T12:37:55;8.63;;;7.40;;
68178;SDS011;54998;42.656;23.382;2022-08-19T12:42:49;7.93;;;7.13;;
68178;SDS011;54998;42.656;23.382;2022-08-19T12:45:16;8.40;;;6.05;;
68178;SDS011;54998;42.656;23.382;2022-08-19T12:47:41;8.82;;;6.93;;
68178;SDS011;54998;42.656;23.382;2022-08-19T12:50:08;8.50;;;6.97;;
68178;SDS011;54998;42.656;23.382;2022-08-19T12:52:34;7.88;;;7.18;;
68178;SDS011;54998;42.656;23.382;2022-08-19T12:55:06;7.28;;;6.53;;
68178;SDS011;54998;42.656;23.382;2022-08-19T12:57:33;6.90;;;6.00;;
68178;SDS011;54998;42.656;23.382;2022-08-19T13:02:38;10.88;;;7.40;;
68178;SDS011;54998;42.656;23.382;2022-08-19T13:05:06;7.85;;;7.05;;
68178;SDS011;54998;42.656;23.382;2022-08-19T13:07:33;8.40;;;7.43;;
68178;SDS011;54998;42.656;23.382;2022-08-19T13:09:59;7.20;;;6.00;;
68178;SDS011;54998;42.656;23.382;2022-08-19T13:12:25;8.75;;;7.15;;
68178;SDS011;54998;42.656;23.382;2022-08-19T13:14:52;8.45;;;7.18;;
68178;SDS011;54998;42.656;23.382;2022-08-19T13:17:18;8.07;;;6.97;;
68178;SDS011;54998;42.656;23.382;2022-08-19T13:19:45;10.43;;;7.53;;
68178;SDS011;54998;42.656;23.382;2022-08-19T13:22:10;6.90;;;5.45;;
68178;SDS011;54998;42.656;23.382;2022-08-19T13:24:37;7.35;;;6.65;;
68178;SDS011;54998;42.656;23.382;2022-08-19T13:27:02;8.57;;;7.18;;
68178;SDS011;54998;42.656;23.382;2022-08-19T13:29:28;8.63;;;6.82;;
68178;SDS011;54998;42.656;23.382;2022-08-19T13:32:12;8.27;;;7.15;;
68178;SDS011;54998;42.656;23.382;2022-08-19T13:34:56;8.10;;;7.22;;
68178;SDS011;54998;42.656;23.382;2022-08-19T13:37:22;8.52;;;7.53;;
68178;SDS011;54998;42.656;23.382;2022-08-19T13:40:06;11.48;;;7.57;;
68178;SDS011;54998;42.656;23.382;2022-08-19T13:42:37;10.55;;;7.43;;
68178;SDS011;54998;42.656;23.382;2022-08-19T13:45:03;8.48;;;7.57;;
68178;SDS011;54998;42.656;23.382;2022-08-19T13:47:31;9.32;;;7.07;;
68178;SDS011;54998;42.656;23.382;2022-08-19T13:49:56;9.93;;;7.38;;
68178;SDS011;54998;42.656;23.382;2022-08-19T13:54:47;9.98;;;7.68;;
68178;SDS011;54998;42.656;23.382;2022-08-19T13:57:13;7.63;;;6.80;;
68178;SDS011;54998;42.656;23.382;2022-08-19T14:02:04;9.25;;;7.03;;
68178;SDS011;54998;42.656;23.382;2022-08-19T14:04:30;7.93;;;6.13;;
68178;SDS011;54998;42.656;23.382;2022-08-19T14:06:55;7.68;;;6.72;;
68178;SDS011;54998;42.656;23.382;2022-08-19T14:11:46;8.27;;;6.17;;
68178;SDS011;54998;42.656;23.382;2022-08-19T14:16:37;9.07;;;7.78;;
68178;SDS011;54998;42.656;23.382;2022-08-19T14:21:28;7.65;;;6.15;;
68178;SDS011;54998;42.656;23.382;2022-08-19T14:26:19;8.00;;;7.20;;
68178;SDS011;54998;42.656;23.382;2022-08-19T14:28:46;10.55;;;7.55;;
68178;SDS011;54998;42.656;23.382;2022-08-19T14:33:41;9.70;;;7.07;;
68178;SDS011;54998;42.656;23.382;2022-08-19T14:38:32;9.20;;;7.22;;
68178;SDS011;54998;42.656;23.382;2022-08-19T14:43:38;10.27;;;6.93;;
68178;SDS011;54998;42.656;23.382;2022-08-19T14:46:04;10.48;;;7.13;;
68178;SDS011;54998;42.656;23.382;2022-08-19T14:50:55;8.80;;;7.35;;
68178;SDS011;54998;42.656;23.382;2022-08-19T14:55:46;9.43;;;7.30;;
68178;SDS011;54998;42.656;23.382;2022-08-19T14:58:12;7.28;;;6.40;;
68178;SDS011;54998;42.656;23.382;2022-08-19T15:00:39;8.70;;;7.50;;
68178;SDS011;54998;42.656;23.382;2022-08-19T15:05:30;11.52;;;7.05;;
68178;SDS011;54998;42.656;23.382;2022-08-19T15:07:56;8.60;;;7.13;;
68178;SDS011;54998;42.656;23.382;2022-08-19T15:12:49;8.15;;;7.32;;
68178;SDS011;54998;42.656;23.382;2022-08-19T15:15:15;9.82;;;6.43;;
68178;SDS011;54998;42.656;23.382;2022-08-19T15:17:43;8.77;;;6.60;;
68178;SDS011;54998;42.656;23.382;2022-08-19T15:20:18;8.57;;;6.07;;
68178;SDS011;54998;42.656;23.382;2022-08-19T15:22:46;9.30;;;6.95;;
68178;SDS011;54998;42.656;23.382;2022-08-19T15:25:12;8.25;;;7.03;;
68178;SDS011;54998;42.656;23.382;2022-08-19T15:27:39;8.40;;;7.60;;
68178;SDS011;54998;42.656;23.382;2022-08-19T15:30:06;9.07;;;7.32;;
68178;SDS011;54998;42.656;23.382;2022-08-19T15:32:34;8.48;;;6.18;;
68178;SDS011;54998;42.656;23.382;2022-08-19T15:35:01;9.25;;;7.28;;
68178;SDS011;54998;42.656;23.382;2022-08-19T15:37:28;9.57;;;7.15;;
68178;SDS011;54998;42.656;23.382;2022-08-19T15:44:56;8.30;;;6.97;;
68178;SDS011;54998;42.656;23.382;2022-08-19T15:49:46;9.48;;;6.50;;
68178;SDS011;54998;42.656;23.382;2022-08-19T15:54:37;6.75;;;5.25;;
68178;SDS011;54998;42.656;23.382;2022-08-19T15:57:03;8.65;;;5.97;;
68178;SDS011;54998;42.656;23.382;2022-08-19T15:59:46;6.57;;;5.97;;
68178;SDS011;54998;42.656;23.382;2022-08-19T16:02:31;7.50;;;6.53;;
68178;SDS011;54998;42.656;23.382;2022-08-19T16:05:16;10.35;;;6.38;;